Time;durP1;ratioP1;P1;durP2;ratioP2;P2;SDS_P1;SDS_P2;PMS_P1;PMS_P2;Temp;Humidity;BMP_temperature;BMP_pressure;BME280_temperature;BME280_humidity;BME280_pressure;Samples;Min_cycle;Max_cycle;Signal;HPM_P1;HPM_P2
2022/09/07 00:02:02;;;;;;;;;;;;;;;;;;4929640;29;20001;-87
2022/09/07 00:04:27;;;;;;;;;;;;;;;;;;4932508;29;20027;-88
2022/09/07 00:06:52;;;;;;;;;;;;;;;;;;4924183;29;19925;-86
2022/09/07 00:09:17;;;;;;;;;;;;;;;;;;4928554;29;19923;-87
2022/09/07 00:11:42;;;;;;;;;;;;;;;;;;4927224;29;19915;-88
2022/09/07 00:14:08;;;;;;;;;;;;;;;;;;4933458;29;19918;-87
2022/09/07 00:16:33;;;;;;;;;;;;;;;;;;4937433;29;19926;-88
2022/09/07 00:18:58;;;;;;;;;;;;;;;;;;4934937;29;19926;-86
2022/09/07 00:21:23;;;;;;;;;;;;;;;;;;4935610;29;19962;-87
2022/09/07 00:23:49;;;;;;;;;;;;;;;;;;4926251;29;20266;-88
2022/09/07 00:26:14;;;;;;;;;;;;;;;;;;4931813;29;19915;-87
2022/09/07 00:28:39;;;;;;;;;;;;;;;;;;4938115;29;19914;-88
2022/09/07 00:31:04;;;;;;;;;;;;;;;;;;4938158;29;19985;-87
2022/09/07 00:33:29;;;;;;;;;;;;;;;;;;4935212;29;19939;-88
2022/09/07 00:35:54;;;;;;;;;;;;;;;;;;4923087;29;19986;-87
2022/09/07 00:38:20;;;;;;;;;;;;;;;;;;4931200;29;19922;-87
2022/09/07 00:40:45;;;;;;;;;;;;;;;;;;4934031;29;20042;-87
2022/09/07 00:43:10;;;;;;;;;;;;;;;;;;4943312;29;20374;-88
2022/09/07 00:45:35;;;;;;;;;;;;;;;;;;4939566;29;20329;-87
2022/09/07 00:48:00;;;;;;;;;;;;;;;;;;4940153;29;19911;-87
2022/09/07 00:50:25;;;;;;;;;;;;;;;;;;4930809;29;20262;-87
2022/09/07 00:52:53;;;;;;;;;;;;;;;;;;4928500;29;20337;-87
2022/09/07 00:55:18;;;;;;;;;;;;;;;;;;4936595;29;20365;-87
2022/09/07 00:57:43;;;;;;;;;;;;;;;;;;4936226;29;19929;-87
2022/09/07 01:00:09;;;;;;;;;;;;;;;;;;4941899;29;19918;-87
2022/09/07 01:02:34;;;;;;;;;;;;;;;;;;4935534;29;19921;-87
2022/09/07 01:04:59;;;;;;;;;;;;;;;;;;4931326;29;20014;-87
2022/09/07 01:07:24;;;;;;;;;;;;;;;;;;4931946;29;19921;-87
2022/09/07 01:09:50;;;;;;;;;;;;;;;;;;4933237;29;19911;-87
2022/09/07 01:12:15;;;;;;;;;;;;;;;;;;4927850;28;19926;-87
2022/09/07 01:14:40;;;;;;;;;;;;;;;;;;4929768;29;19937;-87
2022/09/07 01:17:05;;;;;;;;;;;;;;;;;;4931172;29;19914;-87
2022/09/07 01:19:30;;;;;;;;;;;;;;;;;;4933004;29;19950;-87
2022/09/07 01:21:56;;;;;;;;;;;;;;;;;;4933730;28;19926;-87
2022/09/07 01:24:21;;;;;;;;;;;;;;;;;;4926051;29;19923;-87
2022/09/07 01:26:46;;;;;;;;;;;;;;;;;;4930664;29;20527;-87
2022/09/07 01:29:11;;;;;;;;;;;;;;;;;;4917766;29;19914;-88
2022/09/07 01:31:36;;;;;;;;;;;;;;;;;;4931699;29;20692;-88
2022/09/07 01:34:01;;;;;;;;;;;;;;;;;;4929662;29;19997;-87
2022/09/07 01:36:26;;;;;;;;;;;;;;;;;;4926241;29;20418;-89
2022/09/07 01:38:52;;;;;;;;;;;;;;;;;;4923014;29;20059;-87
2022/09/07 01:41:17;;;;;;;;;;;;;;;;;;4928915;28;19914;-87
2022/09/07 01:43:42;;;;;;;;;;;;;;;;;;4935390;29;19911;-87
2022/09/07 01:46:07;;;;;;;;;;;;;;;;;;4931931;28;19911;-86
2022/09/07 01:48:32;;;;;;;;;;;;;;;;;;4935159;29;19923;-87
2022/09/07 01:50:58;;;;;;;;;;;;;;;;;;4934955;29;19939;-87
2022/09/07 01:53:23;;;;;;;;;;;;;;;;;;4930903;29;19915;-87
2022/09/07 01:55:48;;;;;;;;;;;;;;;;;;4932743;29;20810;-86
2022/09/07 01:58:13;;;;;;;;;;;;;;;;;;4929531;29;19911;-87
2022/09/07 02:00:38;;;;;;;;;;;;;;;;;;4926577;29;20021;-87
2022/09/07 02:03:04;;;;;;;;;;;;;;;;;;4927556;29;19937;-87
2022/09/07 02:05:29;;;;;;;;;;;;;;;;;;4929562;29;19918;-87
2022/09/07 02:07:54;;;;;;;;;;;;;;;;;;4926146;29;20358;-87
2022/09/07 02:10:19;;;;;;;;;;;;;;;;;;4926145;29;19946;-87
2022/09/07 02:12:44;;;;;;;;;;;;;;;;;;4933981;29;19918;-87
2022/09/07 02:15:09;;;;;;;;;;;;;;;;;;4940870;28;19915;-87
2022/09/07 02:17:35;;;;;;;;;;;;;;;;;;4936789;28;19954;-87
2022/09/07 02:20:03;;;;;;;;;;;;;;;;;;4933132;29;19919;-87
2022/09/07 02:22:28;;;;;;;;;;;;;;;;;;4927720;29;19919;-88
2022/09/07 02:24:53;;;;;;;;;;;;;;;;;;4941673;29;19923;-87
2022/09/07 02:27:18;;;;;;;;;;;;;;;;;;4934773;28;19914;-87
2022/09/07 02:29:43;;;;;;;;;;;;;;;;;;4923280;29;19939;-87
2022/09/07 02:32:09;;;;;;;;;;;;;;;;;;4929120;29;19926;-87
2022/09/07 02:34:34;;;;;;;;;;;;;;;;;;4930111;29;19915;-87
2022/09/07 02:36:59;;;;;;;;;;;;;;;;;;4942739;29;19915;-87
2022/09/07 02:39:24;;;;;;;;;;;;;;;;;;4931418;29;19930;-86
2022/09/07 02:41:49;;;;;;;;;;;;;;;;;;4943522;28;19997;-87
2022/09/07 02:44:14;;;;;;;;;;;;;;;;;;4935749;29;19919;-85
2022/09/07 02:46:40;;;;;;;;;;;;;;;;;;4932036;29;19911;-87
2022/09/07 02:49:05;;;;;;;;;;;;;;;;;;4934931;29;20441;-87
2022/09/07 02:51:30;;;;;;;;;;;;;;;;;;4933447;29;19958;-87
2022/09/07 02:53:55;;;;;;;;;;;;;;;;;;4936893;29;19915;-86
2022/09/07 02:56:20;;;;;;;;;;;;;;;;;;4928072;29;20368;-86
2022/09/07 02:58:46;;;;;;;;;;;;;;;;;;4931398;29;19915;-87
2022/09/07 03:01:11;;;;;;;;;;;;;;;;;;4933821;29;19922;-87
2022/09/07 03:03:36;;;;;;;;;;;;;;;;;;4931844;29;19918;-86
2022/09/07 03:06:01;;;;;;;;;;;;;;;;;;4936534;29;19915;-86
2022/09/07 03:08:26;;;;;;;;;;;;;;;;;;4935531;29;20385;-86
2022/09/07 03:10:51;;;;;;;;;;;;;;;;;;4936670;29;20370;-87
2022/09/07 03:13:17;;;;;;;;;;;;;;;;;;4940066;28;19919;-86
2022/09/07 03:15:42;;;;;;;;;;;;;;;;;;4935497;28;20399;-87
2022/09/07 03:18:07;;;;;;;;;;;;;;;;;;4928008;29;19921;-87
2022/09/07 03:20:32;;;;;;;;;;;;;;;;;;4931066;29;19927;-86
2022/09/07 03:22:57;;;;;;;;;;;;;;;;;;4929706;29;19911;-88
2022/09/07 03:25:22;;;;;;;;;;;;;;;;;;4939451;29;19915;-86
2022/09/07 03:27:48;;;;;;;;;;;;;;;;;;4917313;29;19921;-87
2022/09/07 03:30:13;;;;;;;;;;;;;;;;;;4934547;29;19922;-87
2022/09/07 03:32:38;;;;;;;;;;;;;;;;;;4919462;29;20405;-86
2022/09/07 03:35:03;;;;;;;;;;;;;;;;;;4932823;28;19915;-87
2022/09/07 03:37:28;;;;;;;;;;;;;;;;;;4927354;29;20370;-87
2022/09/07 03:39:53;;;;;;;;;;;;;;;;;;4935740;29;19919;-86
2022/09/07 03:42:19;;;;;;;;;;;;;;;;;;4933772;29;20377;-87
2022/09/07 03:44:44;;;;;;;;;;;;;;;;;;4942216;29;20001;-86
2022/09/07 03:47:09;;;;;;;;;;;;;;;;;;4936925;29;19915;-88
2022/09/07 03:49:34;;;;;;;;;;;;;;;;;;4942465;29;19925;-87
2022/09/07 03:51:59;;;;;;;;;;;;;;;;;;4920863;29;19961;-86
2022/09/07 03:54:24;;;;;;;;;;;;;;;;;;4935190;29;20548;-86
2022/09/07 03:56:52;;;;;;;;;;;;;;;;;;4941218;28;19921;-87
2022/09/07 03:59:17;;;;;;;;;;;;;;;;;;4940844;28;19919;-87
2022/09/07 04:01:42;;;;;;;;;;;;;;;;;;4930894;28;19915;-87
2022/09/07 04:04:07;;;;;;;;;;;;;;;;;;4931516;29;20383;-87
2022/09/07 04:06:33;;;;;;;;;;;;;;;;;;4927966;29;19950;-87
2022/09/07 04:08:58;;;;;;;;;;;;;;;;;;4928857;29;19918;-86
2022/09/07 04:11:23;;;;;;;;;;;;;;;;;;4935219;28;19915;-86
2022/09/07 04:13:48;;;;;;;;;;;;;;;;;;4938166;28;20551;-87
2022/09/07 04:16:13;;;;;;;;;;;;;;;;;;4928551;29;19914;-86
2022/09/07 04:18:38;;;;;;;;;;;;;;;;;;4922256;29;19915;-87
2022/09/07 04:21:04;;;;;;;;;;;;;;;;;;4926256;29;20046;-87
2022/09/07 04:23:29;;;;;;;;;;;;;;;;;;4935163;29;19915;-87
2022/09/07 04:25:54;;;;;;;;;;;;;;;;;;4931044;29;19925;-87
2022/09/07 04:28:19;;;;;;;;;;;;;;;;;;4933615;28;19993;-87
2022/09/07 04:30:44;;;;;;;;;;;;;;;;;;4933174;29;19950;-87
2022/09/07 04:33:09;;;;;;;;;;;;;;;;;;4932972;29;19918;-86
2022/09/07 04:35:35;;;;;;;;;;;;;;;;;;4925816;29;19965;-86
2022/09/07 04:38:00;;;;;;;;;;;;;;;;;;4940853;29;19911;-87
2022/09/07 04:40:25;;;;;;;;;;;;;;;;;;4936173;29;19960;-86
2022/09/07 04:42:50;;;;;;;;;;;;;;;;;;4937863;28;19957;-87
2022/09/07 04:45:15;;;;;;;;;;;;;;;;;;4941532;28;19922;-86
2022/09/07 04:47:40;;;;;;;;;;;;;;;;;;4930601;29;19915;-88
2022/09/07 04:50:06;;;;;;;;;;;;;;;;;;4931417;29;19910;-87
2022/09/07 04:52:31;;;;;;;;;;;;;;;;;;4927763;29;20916;-87
2022/09/07 04:54:56;;;;;;;;;;;;;;;;;;4931788;29;20027;-87
2022/09/07 04:57:24;;;;;;;;;;;;;;;;;;4927955;29;20838;-87
2022/09/07 04:59:49;;;;;;;;;;;;;;;;;;4928338;29;19922;-88
2022/09/07 05:02:15;;;;;;;;;;;;;;;;;;4929940;29;19919;-86
2022/09/07 05:04:40;;;;;;;;;;;;;;;;;;4926722;29;19915;-86
2022/09/07 05:07:05;;;;;;;;;;;;;;;;;;4932653;29;19921;-87
2022/09/07 05:09:30;;;;;;;;;;;;;;;;;;4926350;29;19919;-87
2022/09/07 05:11:55;;;;;;;;;;;;;;;;;;4940964;29;19919;-87
2022/09/07 05:14:20;;;;;;;;;;;;;;;;;;4912807;29;20010;-86
2022/09/07 05:16:46;;;;;;;;;;;;;;;;;;4930153;29;20373;-87
2022/09/07 05:19:11;;;;;;;;;;;;;;;;;;4920694;29;19930;-87
2022/09/07 05:21:39;;;;;;;;;;;;;;;;;;4925860;29;20461;-87
2022/09/07 05:24:04;;;;;;;;;;;;;;;;;;4932234;28;20001;-89
2022/09/07 05:26:29;;;;;;;;;;;;;;;;;;4929894;29;19915;-87
2022/09/07 05:28:54;;;;;;;;;;;;;;;;;;4923228;29;19927;-88
2022/09/07 05:31:19;;;;;;;;;;;;;;;;;;4929235;29;19921;-88
2022/09/07 05:33:45;;;;;;;;;;;;;;;;;;4931695;29;19926;-86
2022/09/07 05:36:10;;;;;;;;;;;;;;;;;;4930452;29;19937;-87
2022/09/07 05:38:35;;;;;;;;;;;;;;;;;;4934963;29;19953;-87
2022/09/07 05:41:04;;;;;;;;;;;;;;;;;;4928910;29;19927;-87
2022/09/07 05:43:29;;;;;;;;;;;;;;;;;;4932102;29;19922;-87
2022/09/07 05:45:55;;;;;;;;;;;;;;;;;;4929368;29;19918;-87
2022/09/07 05:48:20;;;;;;;;;;;;;;;;;;4933633;29;19985;-87
2022/09/07 05:50:45;;;;;;;;;;;;;;;;;;4925878;29;20358;-87
2022/09/07 05:53:10;;;;;;;;;;;;;;;;;;4931802;29;19915;-87
2022/09/07 05:55:35;;;;;;;;;;;;;;;;;;4927169;29;19938;-87
2022/09/07 05:58:01;;;;;;;;;;;;;;;;;;4929841;29;20373;-86
2022/09/07 06:00:26;;;;;;;;;;;;;;;;;;4934500;29;19926;-87
2022/09/07 06:02:51;;;;;;;;;;;;;;;;;;4927235;29;20305;-87
2022/09/07 06:05:16;;;;;;;;;;;;;;;;;;4933922;29;19919;-87
2022/09/07 06:07:41;;;;;;;;;;;;;;;;;;4931189;29;19922;-87
2022/09/07 06:10:07;;;;;;;;;;;;;;;;;;4934261;29;19919;-86
2022/09/07 06:12:32;;;;;;;;;;;;;;;;;;4933359;29;19969;-87
2022/09/07 06:14:57;;;;;;;;;;;;;;;;;;4933332;29;19963;-87
2022/09/07 06:17:22;;;;;;;;;;;;;;;;;;4935093;29;20272;-87
2022/09/07 06:19:47;;;;;;;;;;;;;;;;;;4939050;29;20522;-89
2022/09/07 06:22:13;;;;;;;;;;;;;;;;;;4934702;29;19914;-87
2022/09/07 06:24:38;;;;;;;;;;;;;;;;;;4934095;29;19990;-86
2022/09/07 06:27:03;;;;;;;;;;;;;;;;;;4942579;28;19918;-87
2022/09/07 06:29:28;;;;;;;;;;;;;;;;;;4934479;29;20357;-87
2022/09/07 06:31:53;;;;;;;;;;;;;;;;;;4927945;29;20381;-87
2022/09/07 06:34:18;;;;;;;;;;;;;;;;;;4913801;29;19915;-87
2022/09/07 06:36:44;;;;;;;;;;;;;;;;;;4920335;29;19911;-88
2022/09/07 06:39:09;;;;;;;;;;;;;;;;;;4936231;29;19966;-86
2022/09/07 06:41:34;;;;;;;;;;;;;;;;;;4927841;29;20282;-87
2022/09/07 06:43:59;;;;;;;;;;;;;;;;;;4935543;29;19962;-87
2022/09/07 06:46:25;;;;;;;;;;;;;;;;;;4937441;29;19947;-87
2022/09/07 06:48:50;;;;;;;;;;;;;;;;;;4932968;29;19927;-86
2022/09/07 06:51:17;;;;;;;;;;;;;;;;;;4930664;29;19923;-87
2022/09/07 06:53:42;;;;;;;;;;;;;;;;;;4927204;29;19919;-87
2022/09/07 06:56:07;;;;;;;;;;;;;;;;;;4936497;28;19985;-87
2022/09/07 06:58:32;;;;;;;;;;;;;;;;;;4937475;29;19919;-87
2022/09/07 07:00:58;;;;;;;;;;;;;;;;;;4938303;29;20021;-86
2022/09/07 07:03:23;;;;;;;;;;;;;;;;;;4930640;29;19915;-87
2022/09/07 07:05:48;;;;;;;;;;;;;;;;;;4936420;29;19919;-86
2022/09/07 07:08:13;;;;;;;;;;;;;;;;;;4932987;29;19915;-86
2022/09/07 07:10:39;;;;;;;;;;;;;;;;;;4933107;29;19915;-87
2022/09/07 07:13:04;;;;;;;;;;;;;;;;;;4929155;29;19997;-87
2022/09/07 07:15:29;;;;;;;;;;;;;;;;;;4933518;29;20550;-87
2022/09/07 07:17:54;;;;;;;;;;;;;;;;;;4935210;29;19955;-86
2022/09/07 07:20:20;;;;;;;;;;;;;;;;;;4933538;29;19925;-87
2022/09/07 07:22:47;;;;;;;;;;;;;;;;;;4928117;29;19923;-86
2022/09/07 07:25:13;;;;;;;;;;;;;;;;;;4935286;29;20368;-86
2022/09/07 07:27:39;;;;;;;;;;;;;;;;;;4938996;29;19938;-88
2022/09/07 07:30:04;;;;;;;;;;;;;;;;;;4937195;29;20293;-88
2022/09/07 07:32:30;;;;;;;;;;;;;;;;;;4924859;29;19975;-86
2022/09/07 07:34:55;;;;;;;;;;;;;;;;;;4924213;29;19975;-87
2022/09/07 07:37:21;;;;;;;;;;;;;;;;;;4929162;29;20345;-85
2022/09/07 07:39:49;;;;;;;;;;;;;;;;;;4933066;29;19930;-87
2022/09/07 07:42:14;;;;;;;;;;;;;;;;;;4928040;29;19915;-86
2022/09/07 07:44:39;;;;;;;;;;;;;;;;;;4935456;29;19914;-86
2022/09/07 07:47:04;;;;;;;;;;;;;;;;;;4929845;29;19929;-87
2022/09/07 07:49:30;;;;;;;;;;;;;;;;;;4934065;28;20409;-86
2022/09/07 07:51:55;;;;;;;;;;;;;;;;;;4928988;29;19991;-86
2022/09/07 07:54:20;;;;;;;;;;;;;;;;;;4927357;29;20365;-87
2022/09/07 07:56:45;;;;;;;;;;;;;;;;;;4927850;29;19915;-88
2022/09/07 07:59:11;;;;;;;;;;;;;;;;;;4921376;29;19981;-87
2022/09/07 08:01:36;;;;;;;;;;;;;;;;;;4939153;29;20009;-87
2022/09/07 08:04:01;;;;;;;;;;;;;;;;;;4936378;28;19915;-87
2022/09/07 08:06:26;;;;;;;;;;;;;;;;;;4926040;29;19965;-87
2022/09/07 08:08:52;;;;;;;;;;;;;;;;;;4936663;29;20365;-87
2022/09/07 08:11:17;;;;;;;;;;;;;;;;;;4934266;28;19923;-87
2022/09/07 08:13:42;;;;;;;;;;;;;;;;;;4930078;28;19915;-87
2022/09/07 08:16:08;;;;;;;;;;;;;;;;;;4932965;29;19919;-87
2022/09/07 08:18:33;;;;;;;;;;;;;;;;;;4927350;29;19941;-87
2022/09/07 08:20:59;;;;;;;;;;;;;;;;;;4937312;28;19959;-87
2022/09/07 08:23:24;;;;;;;;;;;;;;;;;;4922498;29;19927;-86
2022/09/07 08:25:49;;;;;;;;;;;;;;;;;;4933093;29;19989;-87
2022/09/07 08:28:14;;;;;;;;;;;;;;;;;;4929835;29;19919;-86
2022/09/07 08:30:40;;;;;;;;;;;;;;;;;;4931648;29;19962;-89
2022/09/07 08:33:05;;;;;;;;;;;;;;;;;;4923694;29;19927;-87
2022/09/07 08:35:30;;;;;;;;;;;;;;;;;;4933392;29;20002;-86
2022/09/07 08:37:55;;;;;;;;;;;;;;;;;;4934350;29;19915;-87
2022/09/07 08:40:20;;;;;;;;;;;;;;;;;;4928983;28;20939;-89
2022/09/07 08:42:45;;;;;;;;;;;;;;;;;;4925278;29;19911;-88
2022/09/07 08:45:11;;;;;;;;;;;;;;;;;;4933156;29;20366;-87
2022/09/07 08:47:36;;;;;;;;;;;;;;;;;;4935140;29;19915;-87
2022/09/07 08:50:01;;;;;;;;;;;;;;;;;;4931287;29;19958;-87
2022/09/07 08:52:26;;;;;;;;;;;;;;;;;;4925618;29;19923;-87
2022/09/07 08:54:52;;;;;;;;;;;;;;;;;;4931266;29;19916;-87
2022/09/07 08:57:17;;;;;;;;;;;;;;;;;;4924719;29;19933;-87
2022/09/07 08:59:42;;;;;;;;;;;;;;;;;;4926635;29;20377;-90
2022/09/07 09:02:07;;;;;;;;;;;;;;;;;;4929013;28;19957;-88
2022/09/07 09:04:32;;;;;;;;;;;;;;;;;;4932620;29;19915;-88
2022/09/07 09:06:58;;;;;;;;;;;;;;;;;;4934780;29;19922;-91
2022/09/07 09:09:24;;;;;;;;;;;;;;;;;;4927820;29;20428;-90
2022/09/07 09:11:49;;;;;;;;;;;;;;;;;;4926712;29;19939;-91
2022/09/07 09:14:14;;;;;;;;;;;;;;;;;;4927625;29;20005;-90
2022/09/07 09:16:39;;;;;;;;;;;;;;;;;;4928492;29;20002;-90
2022/09/07 09:19:05;;;;;;;;;;;;;;;;;;4925995;29;19915;-89
2022/09/07 09:21:30;;;;;;;;;;;;;;;;;;4939395;29;19915;-90
2022/09/07 09:23:55;;;;;;;;;;;;;;;;;;4933860;29;19921;-90
2022/09/07 09:26:20;;;;;;;;;;;;;;;;;;4947084;29;19914;-87
2022/09/07 09:28:45;;;;;;;;;;;;;;;;;;4944287;29;19967;-90
2022/09/07 09:31:11;;;;;;;;;;;;;;;;;;4924312;29;20076;-88
2022/09/07 09:33:36;;;;;;;;;;;;;;;;;;4928129;29;19954;-87
2022/09/07 09:36:04;;;;;;;;;;;;;;;;;;4930759;29;19950;-90
2022/09/07 09:38:30;;;;;;;;;;;;;;;;;;4930317;29;19994;-89
2022/09/07 09:40:55;;;;;;;;;;;;;;;;;;4931960;28;19938;-88
2022/09/07 09:43:21;;;;;;;;;;;;;;;;;;4931658;29;19915;-87
2022/09/07 09:45:46;;;;;;;;;;;;;;;;;;4925789;28;19921;-89
2022/09/07 09:48:11;;;;;;;;;;;;;;;;;;4929142;29;19915;-88
2022/09/07 09:50:37;;;;;;;;;;;;;;;;;;4924753;29;20323;-89
2022/09/07 09:53:02;;;;;;;;;;;;;;;;;;4916062;29;20391;-89
2022/09/07 09:55:28;;;;;;;;;;;;;;;;;;4929601;29;19919;-89
2022/09/07 09:57:54;;;;;;;;;;;;;;;;;;4932562;29;20550;-88
2022/09/07 10:00:19;;;;;;;;;;;;;;;;;;4929734;29;20361;-89
2022/09/07 10:02:44;;;;;;;;;;;;;;;;;;4925681;29;19930;-89
2022/09/07 10:05:09;;;;;;;;;;;;;;;;;;4931670;28;20388;-90
2022/09/07 10:07:34;;;;;;;;;;;;;;;;;;4929095;29;19919;-89
2022/09/07 10:09:59;;;;;;;;;;;;;;;;;;4925954;29;19978;-88
2022/09/07 10:12:25;;;;;;;;;;;;;;;;;;4935877;29;19934;-89
2022/09/07 10:14:50;;;;;;;;;;;;;;;;;;4932123;29;19929;-90
2022/09/07 10:17:15;;;;;;;;;;;;;;;;;;4930063;29;20641;-86
2022/09/07 10:19:40;;;;;;;;;;;;;;;;;;4921509;29;19919;-88
2022/09/07 10:22:05;;;;;;;;;;;;;;;;;;4927623;29;20373;-88
2022/09/07 10:24:31;;;;;;;;;;;;;;;;;;4930900;29;19914;-86
2022/09/07 10:26:56;;;;;;;;;;;;;;;;;;4930934;29;19922;-88
2022/09/07 10:29:21;;;;;;;;;;;;;;;;;;4928542;29;19915;-87
2022/09/07 10:31:47;;;;;;;;;;;;;;;;;;4933541;29;20357;-87
2022/09/07 10:34:12;;;;;;;;;;;;;;;;;;4931734;29;19919;-87
2022/09/07 10:36:37;;;;;;;;;;;;;;;;;;4930216;29;19914;-86
2022/09/07 10:39:03;;;;;;;;;;;;;;;;;;4922538;29;19915;-88
2022/09/07 10:41:28;;;;;;;;;;;;;;;;;;4938422;28;19929;-86
2022/09/07 10:43:53;;;;;;;;;;;;;;;;;;4929470;29;19919;-86
2022/09/07 10:46:18;;;;;;;;;;;;;;;;;;4924178;29;19919;-86
2022/09/07 10:48:43;;;;;;;;;;;;;;;;;;4930917;28;20514;-86
2022/09/07 10:51:11;;;;;;;;;;;;;;;;;;4936052;28;19922;-86
2022/09/07 10:53:36;;;;;;;;;;;;;;;;;;4936209;28;19943;-87
2022/09/07 10:56:02;;;;;;;;;;;;;;;;;;4929757;29;19919;-84
2022/09/07 10:58:27;;;;;;;;;;;;;;;;;;4935301;29;20342;-87
2022/09/07 11:00:52;;;;;;;;;;;;;;;;;;4931198;29;19919;-86
2022/09/07 11:03:17;;;;;;;;;;;;;;;;;;4926106;28;20009;-84
2022/09/07 11:05:42;;;;;;;;;;;;;;;;;;4932555;29;19970;-87
2022/09/07 11:10:53;;;;;;;;;;;;;;;;;;4918044;29;19915;-85
2022/09/07 11:13:21;;;;;;;;;;;;;;;;;;4934838;29;19919;-84
2022/09/07 11:24:45;;;;;;;;;;;;;;;;;;;;;
2022/09/07 11:32:39;;;;;;;;;;;;;;;;;;5043484;23;19947;-85
2022/09/07 11:38:09;;;;;;;;;;;;;;;;;;;;;
2022/09/07 11:43:25;;;;;;;;;;;;;;;;;;4932802;29;19973;-84
2022/09/07 11:46:03;;;;;;;;;;;;;;;;;;;;;
2022/09/07 12:04:15;;;;;;;;;;;;;;;;;;4942891;28;19992;-85
2022/09/07 12:20:26;;;;;;;;;;;;;;;;;;;;;
2022/09/07 12:31:22;;;;;;;;;;;;;;;;;;4865158;29;20428;-86
2022/09/07 12:34:00;;;;;;;;;;;;;;;;;;;;;
2022/09/07 12:36:41;;;;;;;;;;;;;;;;;;;;;
2022/09/07 12:42:07;;;;;;;;;;;;;;;;;;4858610;29;19916;-86
2022/09/07 12:44:32;;;;;;;;;;;;;;;;;;4864289;29;19919;-87
2022/09/07 12:46:57;;;;;;;;;;;;;;;;;;4868802;29;19922;-87
2022/09/07 12:49:23;;;;;;;;;;;;;;;;;;4899509;28;20064;-87
2022/09/07 12:51:48;;;;;;;;;;;;;;;;;;4946470;28;20497;-87
2022/09/07 12:54:13;;;;;;;;;;;;;;;;;;4944900;28;19926;-85
2022/09/07 12:56:38;;;;;;;;;;;;;;;;;;4933128;29;20364;-84
2022/09/07 12:59:03;;;;;;;;;;;;;;;;;;4951647;28;20005;-84
2022/09/07 13:01:28;;;;;;;;;;;;;;;;;;4948810;28;20448;-85
2022/09/07 13:03:54;;;;;;;;;;;;;;;;;;4943742;28;19921;-85
2022/09/07 13:06:19;;;;;;;;;;;;;;;;;;4945357;28;20515;-85
2022/09/07 13:08:44;;;;;;;;;;;;;;;;;;4949085;28;20006;-87
2022/09/07 13:11:09;;;;;;;;;;;;;;;;;;4947392;28;19918;-89
2022/09/07 13:13:35;;;;;;;;;;;;;;;;;;4948981;28;20369;-86
2022/09/07 13:16:00;;;;;;;;;;;;;;;;;;4946449;28;19914;-86
2022/09/07 13:18:28;;;;;;;;;;;;;;;;;;4947500;28;20333;-86
2022/09/07 13:20:53;;;;;;;;;;;;;;;;;;4948158;28;20669;-86
2022/09/07 13:23:19;;;;;;;;;;;;;;;;;;4948027;28;19966;-87
2022/09/07 13:25:44;;;;;;;;;;;;;;;;;;4930102;28;19922;-83
2022/09/07 13:28:09;;;;;;;;;;;;;;;;;;4942234;28;20704;-84
2022/09/07 13:30:34;;;;;;;;;;;;;;;;;;4946959;28;19970;-85
2022/09/07 13:32:59;;;;;;;;;;;;;;;;;;4938279;28;20448;-83
2022/09/07 13:35:25;;;;;;;;;;;;;;;;;;4949366;28;19921;-84
2022/09/07 13:37:50;;;;;;;;;;;;;;;;;;4947853;28;19925;-84
2022/09/07 13:40:15;;;;;;;;;;;;;;;;;;4946972;28;20284;-83
2022/09/07 13:42:40;;;;;;;;;;;;;;;;;;4945164;28;20369;-83
2022/09/07 13:45:06;;;;;;;;;;;;;;;;;;4947697;28;19910;-83
2022/09/07 13:47:31;;;;;;;;;;;;;;;;;;4945783;28;19914;-82
2022/09/07 13:49:56;;;;;;;;;;;;;;;;;;4948732;28;19956;-82
2022/09/07 13:52:21;;;;;;;;;;;;;;;;;;4947283;28;19918;-82
2022/09/07 13:54:46;;;;;;;;;;;;;;;;;;4945545;28;19926;-82
2022/09/07 13:57:12;;;;;;;;;;;;;;;;;;4942904;28;19915;-82
2022/09/07 13:59:37;;;;;;;;;;;;;;;;;;4946001;28;19923;-83
2022/09/07 14:02:02;;;;;;;;;;;;;;;;;;4947827;28;19914;-82
2022/09/07 14:04:27;;;;;;;;;;;;;;;;;;4948734;28;19914;-82
2022/09/07 14:06:52;;;;;;;;;;;;;;;;;;4943506;28;20362;-83
2022/09/07 14:09:17;;;;;;;;;;;;;;;;;;4946874;28;19922;-83
2022/09/07 14:11:43;;;;;;;;;;;;;;;;;;4950934;28;19914;-83
2022/09/07 14:14:08;;;;;;;;;;;;;;;;;;4947148;28;19962;-84
2022/09/07 14:16:33;;;;;;;;;;;;;;;;;;4947107;28;19974;-84
2022/09/07 14:18:58;;;;;;;;;;;;;;;;;;4949074;28;19944;-83
2022/09/07 14:21:23;;;;;;;;;;;;;;;;;;4930398;29;19922;-84
2022/09/07 14:23:48;;;;;;;;;;;;;;;;;;4947935;28;20029;-85
2022/09/07 14:26:14;;;;;;;;;;;;;;;;;;4952724;28;19921;-86
2022/09/07 14:28:39;;;;;;;;;;;;;;;;;;4950856;28;20058;-85
2022/09/07 14:31:04;;;;;;;;;;;;;;;;;;4951206;28;20018;-85
2022/09/07 14:33:29;;;;;;;;;;;;;;;;;;4949168;28;19918;-87
2022/09/07 14:35:55;;;;;;;;;;;;;;;;;;4950620;28;19914;-86
2022/09/07 14:38:21;;;;;;;;;;;;;;;;;;4951961;28;19911;-86
2022/09/07 14:40:47;;;;;;;;;;;;;;;;;;4952278;28;19919;-85
2022/09/07 14:43:12;;;;;;;;;;;;;;;;;;4949838;29;20368;-85
2022/09/07 14:45:37;;;;;;;;;;;;;;;;;;4956337;28;19921;-85
2022/09/07 14:48:02;;;;;;;;;;;;;;;;;;4951658;28;20013;-84
2022/09/07 14:50:27;;;;;;;;;;;;;;;;;;4948125;29;20661;-85
2022/09/07 14:52:52;;;;;;;;;;;;;;;;;;4950375;29;19911;-86
2022/09/07 14:55:18;;;;;;;;;;;;;;;;;;4947604;28;20414;-85
2022/09/07 14:57:43;;;;;;;;;;;;;;;;;;4953877;28;19966;-85
2022/09/07 15:00:08;;;;;;;;;;;;;;;;;;4956552;28;19931;-85
2022/09/07 15:02:33;;;;;;;;;;;;;;;;;;4953984;28;20534;-85
2022/09/07 15:04:59;;;;;;;;;;;;;;;;;;4946504;28;20419;-85
2022/09/07 15:07:24;;;;;;;;;;;;;;;;;;4933689;29;19941;-85
2022/09/07 15:09:49;;;;;;;;;;;;;;;;;;4944010;28;20037;-85
2022/09/07 15:12:14;;;;;;;;;;;;;;;;;;4944452;28;20062;-86
2022/09/07 15:14:39;;;;;;;;;;;;;;;;;;4949037;28;20298;-85
2022/09/07 15:17:04;;;;;;;;;;;;;;;;;;4956242;28;20004;-85
2022/09/07 15:19:30;;;;;;;;;;;;;;;;;;4943356;28;20301;-85
2022/09/07 15:21:55;;;;;;;;;;;;;;;;;;4949620;28;20250;-84
2022/09/07 15:24:20;;;;;;;;;;;;;;;;;;4952227;28;19949;-85
2022/09/07 15:26:45;;;;;;;;;;;;;;;;;;4937857;29;19914;-85
2022/09/07 15:29:11;;;;;;;;;;;;;;;;;;4944004;29;20017;-85
2022/09/07 15:31:37;;;;;;;;;;;;;;;;;;4945722;28;20284;-85
2022/09/07 15:34:02;;;;;;;;;;;;;;;;;;4948412;28;19926;-85
2022/09/07 15:36:27;;;;;;;;;;;;;;;;;;4947550;28;19915;-84
2022/09/07 15:38:53;;;;;;;;;;;;;;;;;;4950365;28;20751;-85
2022/09/07 15:41:18;;;;;;;;;;;;;;;;;;4950454;28;19929;-85
2022/09/07 15:43:43;;;;;;;;;;;;;;;;;;4945331;29;19919;-86
2022/09/07 15:46:08;;;;;;;;;;;;;;;;;;4945038;28;19922;-85
2022/09/07 15:48:34;;;;;;;;;;;;;;;;;;4947215;28;20014;-86
2022/09/07 15:50:59;;;;;;;;;;;;;;;;;;4925810;29;20415;-85
2022/09/07 15:53:24;;;;;;;;;;;;;;;;;;4951030;28;19943;-84
2022/09/07 15:55:49;;;;;;;;;;;;;;;;;;4952372;28;19914;-86
2022/09/07 15:58:15;;;;;;;;;;;;;;;;;;4949793;28;19918;-85
2022/09/07 16:00:42;;;;;;;;;;;;;;;;;;4941261;28;20318;-85
2022/09/07 16:03:07;;;;;;;;;;;;;;;;;;4951850;28;19926;-85
2022/09/07 16:05:33;;;;;;;;;;;;;;;;;;4930143;29;20288;-86
2022/09/07 16:07:58;;;;;;;;;;;;;;;;;;4951759;28;19914;-85
2022/09/07 16:10:24;;;;;;;;;;;;;;;;;;4949009;28;19974;-86
2022/09/07 16:12:49;;;;;;;;;;;;;;;;;;4947425;28;19918;-86
2022/09/07 16:15:14;;;;;;;;;;;;;;;;;;4949902;28;19946;-85
2022/09/07 16:17:39;;;;;;;;;;;;;;;;;;4933325;29;19925;-86
2022/09/07 16:20:05;;;;;;;;;;;;;;;;;;4951198;28;19918;-85
2022/09/07 16:22:30;;;;;;;;;;;;;;;;;;4955344;28;19923;-85
2022/09/07 16:24:55;;;;;;;;;;;;;;;;;;4945550;28;19962;-85
2022/09/07 16:27:21;;;;;;;;;;;;;;;;;;4948081;28;19922;-85
2022/09/07 16:29:46;;;;;;;;;;;;;;;;;;4946107;28;19922;-86
2022/09/07 16:32:11;;;;;;;;;;;;;;;;;;4934406;28;19925;-86
2022/09/07 16:34:36;;;;;;;;;;;;;;;;;;4944104;28;20007;-86
2022/09/07 16:37:01;;;;;;;;;;;;;;;;;;4951048;28;19922;-86
2022/09/07 16:39:35;;;;;;;;;;;;;;;;;;4952836;28;19948;-85
2022/09/07 16:42:01;;;;;;;;;;;;;;;;;;4946284;28;20626;-85
2022/09/07 16:44:36;;;;;;;;;;;;;;;;;;4935862;28;19910;-85
2022/09/07 16:47:17;;;;;;;;;;;;;;;;;;4949714;28;19922;-87
2022/09/07 16:49:51;;;;;;;;;;;;;;;;;;4948488;28;19918;-86
2022/09/07 16:55:26;;;;;;;;;;;;;;;;;;4873862;29;20291;-86
2022/09/07 17:03:55;;;;;;;;;;;;;;;;;;;;;
2022/09/07 17:06:39;;;;;;;;;;;;;;;;;;;;;
2022/09/07 21:00:36;;;;;;;;;;;;;;;;;;4926478;29;19977;-87
2022/09/07 21:03:01;;;;;;;;;;;;;;;;;;4907639;29;19950;-88
2022/09/07 21:05:26;;;;;;;;;;;;;;;;;;4908977;29;19919;-86
2022/09/07 21:07:52;;;;;;;;;;;;;;;;;;4909698;29;19915;-87
2022/09/07 21:10:17;;;;;;;;;;;;;;;;;;4914328;29;19919;-86
2022/09/07 21:12:42;;;;;;;;;;;;;;;;;;4910769;29;20070;-86
2022/09/07 21:15:07;;;;;;;;;;;;;;;;;;4916956;29;21824;-87
2022/09/07 21:17:33;;;;;;;;;;;;;;;;;;4907988;29;19926;-87
2022/09/07 21:19:58;;;;;;;;;;;;;;;;;;4912115;29;19927;-88
2022/09/07 21:22:23;;;;;;;;;;;;;;;;;;4917813;29;19922;-88
2022/09/07 21:24:48;;;;;;;;;;;;;;;;;;4906803;29;20442;-87
2022/09/07 21:27:13;;;;;;;;;;;;;;;;;;4911729;29;19922;-87
2022/09/07 21:29:39;;;;;;;;;;;;;;;;;;4909849;29;19915;-86
2022/09/07 21:32:04;;;;;;;;;;;;;;;;;;4913862;29;19922;-87
2022/09/07 21:34:29;;;;;;;;;;;;;;;;;;4908482;29;19947;-86
2022/09/07 21:36:54;;;;;;;;;;;;;;;;;;4910765;29;20358;-86
2022/09/07 21:39:20;;;;;;;;;;;;;;;;;;4914064;29;19926;-87
2022/09/07 21:41:45;;;;;;;;;;;;;;;;;;4910618;29;20398;-87
2022/09/07 21:44:11;;;;;;;;;;;;;;;;;;4908593;29;20019;-88